This is the latest recevied weather packets stored in our database for station/object JA1CAY-13. If no packets are shown the sender has not sent any weather packets the latest 10 day(s).
| Time | Temp. | Humidity | Pressure | Rain* | Wind** | Luminosity | Snow |
|---|---|---|---|---|---|---|---|
| 1777377264 | 18.33° C | 79% | 1009.2 hPa | 0 mm | - | 0 W/m² | - |
| 1777373483 | 18.89° C | 75% | 1008.6 hPa | 0 mm | - | 0 W/m² | - |
| 1777362144 | 23.33° C | 57% | 1006.7 hPa | 0 mm | - | 49 W/m² | - |
| 1777361063 | 24.44° C | 56% | 1006.8 hPa | 0 mm | - | 65 W/m² | - |
| 1777357284 | 25.56° C | 50% | 1006.7 hPa | 0 mm | - | 512 W/m² | - |
| 1777354044 | 25.56° C | 47% | 1007.3 hPa | 0 mm | - | 682 W/m² | - |
| 1777353504 | 25.56° C | 46% | 1007.6 hPa | 0 mm | - | 684 W/m² | - |
| 1777351883 | 26.11° C | 44% | 1008 hPa | 0 mm | - | 749 W/m² | - |
| 1777350264 | 25.56° C | 45% | 1008.5 hPa | 0 mm | - | 796 W/m² | - |
| 1777345404 | 23.33° C | 48% | 1010 hPa | 0 mm | - | 896 W/m² | - |
| 1777344324 | 23.33° C | 50% | 1010.3 hPa | 0 mm | - | 912 W/m² | - |
| 1777336224 | 17.22° C | 62% | 1012.6 hPa | 0 mm | - | 728 W/m² | - |
| 1777331363 | 15° C | 72% | 1013.4 hPa | 0 mm | - | 554 W/m² | - |
| 1777330283 | 14.44° C | 72% | 1013.5 hPa | 0 mm | - | 492 W/m² | - |
| 1777326504 | 12.22° C | 84% | 1014.1 hPa | 0 mm | - | 274 W/m² | - |
| 1777325964 | 11.67° C | 86% | 1014.2 hPa | 0 mm | - | 206 W/m² | - |
| 1777324884 | 10.56° C | 90% | 1013.9 hPa | 0 mm | - | 153 W/m² | - |
| 1777322184 | 8.33° C | 91% | 1013.4 hPa | 0 mm | - | 33 W/m² | - |
| 1777313004 | 8.89° C | 87% | 1012.1 hPa | 0 mm | - | 0 W/m² | - |
| 1777304364 | 10° C | 85% | 1011.7 hPa | 0 mm | - | 0 W/m² | - |
| 1777301663 | 10.56° C | 82% | 1011.6 hPa | 0 mm | - | 0 W/m² | - |
| 1777300584 | 11.11° C | 83% | 1011.4 hPa | 0 mm | - | 0 W/m² | - |
| 1777296804 | 12.22° C | 77% | 1011.1 hPa | 0 mm | - | 0 W/m² | - |
| 1777296264 | 12.78° C | 75% | 1011.1 hPa | 0 mm | - | 0 W/m² | - |
| 1777293023 | 13.89° C | 71% | 1010.1 hPa | 0 mm | - | 0 W/m² | - |
* Rain latest hour (hover to see other rain measurements)
** Current wind speed in m/s (hover to see current wind gust speed)